Terminal Aerodrome Forecast
Issued by NWS

Home | Current Version | Previous Version | Text Only | Print | Product List | Glossary On
Versions: 1 2 3 4 5 6 7 8 9 10 11 12 13 14 15 16 17 18 19 20 21 22 23
000
FTUS46 KLOX 260537
TAFSBP
TAF
KSBP 260537Z 2606/2706 32008KT P6SM BKN015
     FM260900 VRB03KT P6SM OVC015
     FM261800 30008KT P6SM SCT015 BKN020
     FM262000 30012KT P6SM SKC
     FM262200 30015G25KT P6SM SKC
     FM270200 31012KT P6SM SKC=

USA.gov is the U.S. government's official web portal to all federal, state and local government web resources and services.